sensor_id;sensor_type;location;lat;lon;timestamp;P1;durP1;ratioP1;P2;durP2;ratioP2
28577;SDS011;15769;52.248;15.818;2023-04-23T00:00:18;26.33;;;16.33;;
28577;SDS011;15769;52.248;15.818;2023-04-23T00:05:41;27.38;;;16.95;;
28577;SDS011;15769;52.248;15.818;2023-04-23T00:10:45;27.58;;;17.58;;
28577;SDS011;15769;52.248;15.818;2023-04-23T00:15:48;27.60;;;17.30;;
28577;SDS011;15769;52.248;15.818;2023-04-23T00:20:51;25.47;;;16.10;;
28577;SDS011;15769;52.248;15.818;2023-04-23T00:25:53;29.00;;;18.15;;
28577;SDS011;15769;52.248;15.818;2023-04-23T00:30:56;30.55;;;18.60;;
28577;SDS011;15769;52.248;15.818;2023-04-23T00:35:58;30.40;;;17.90;;
28577;SDS011;15769;52.248;15.818;2023-04-23T00:41:01;32.08;;;18.50;;
28577;SDS011;15769;52.248;15.818;2023-04-23T00:46:03;31.50;;;18.70;;
28577;SDS011;15769;52.248;15.818;2023-04-23T00:51:09;30.48;;;18.20;;
28577;SDS011;15769;52.248;15.818;2023-04-23T00:56:12;29.20;;;18.50;;
28577;SDS011;15769;52.248;15.818;2023-04-23T01:01:15;31.88;;;18.27;;
28577;SDS011;15769;52.248;15.818;2023-04-23T01:06:22;30.00;;;17.35;;
28577;SDS011;15769;52.248;15.818;2023-04-23T01:11:26;29.02;;;17.75;;
28577;SDS011;15769;52.248;15.818;2023-04-23T01:16:29;29.65;;;17.33;;
28577;SDS011;15769;52.248;15.818;2023-04-23T01:21:32;31.50;;;18.57;;
28577;SDS011;15769;52.248;15.818;2023-04-23T01:26:37;29.35;;;19.35;;
28577;SDS011;15769;52.248;15.818;2023-04-23T01:31:40;32.78;;;20.00;;
28577;SDS011;15769;52.248;15.818;2023-04-23T01:36:44;32.50;;;20.02;;
28577;SDS011;15769;52.248;15.818;2023-04-23T01:46:50;28.83;;;17.67;;
28577;SDS011;15769;52.248;15.818;2023-04-23T01:51:52;32.72;;;17.27;;
28577;SDS011;15769;52.248;15.818;2023-04-23T01:56:55;29.77;;;17.27;;
28577;SDS011;15769;52.248;15.818;2023-04-23T02:01:58;29.60;;;17.63;;
28577;SDS011;15769;52.248;15.818;2023-04-23T02:07:00;27.33;;;16.75;;
28577;SDS011;15769;52.248;15.818;2023-04-23T02:12:03;24.00;;;15.90;;
28577;SDS011;15769;52.248;15.818;2023-04-23T02:17:06;26.80;;;16.17;;
28577;SDS011;15769;52.248;15.818;2023-04-23T02:22:08;32.40;;;17.45;;
28577;SDS011;15769;52.248;15.818;2023-04-23T02:27:11;32.50;;;18.40;;
28577;SDS011;15769;52.248;15.818;2023-04-23T02:32:14;29.42;;;17.13;;
28577;SDS011;15769;52.248;15.818;2023-04-23T02:37:16;28.00;;;17.23;;
28577;SDS011;15769;52.248;15.818;2023-04-23T02:42:19;24.67;;;15.05;;
28577;SDS011;15769;52.248;15.818;2023-04-23T02:47:22;28.95;;;17.38;;
28577;SDS011;15769;52.248;15.818;2023-04-23T02:52:24;28.27;;;15.93;;
28577;SDS011;15769;52.248;15.818;2023-04-23T02:57:27;31.23;;;15.98;;
28577;SDS011;15769;52.248;15.818;2023-04-23T03:02:30;25.13;;;15.50;;
28577;SDS011;15769;52.248;15.818;2023-04-23T03:12:36;29.38;;;16.65;;
28577;SDS011;15769;52.248;15.818;2023-04-23T03:17:39;29.90;;;17.02;;
28577;SDS011;15769;52.248;15.818;2023-04-23T03:22:42;25.40;;;16.50;;
28577;SDS011;15769;52.248;15.818;2023-04-23T03:27:45;28.00;;;16.90;;
28577;SDS011;15769;52.248;15.818;2023-04-23T03:32:49;30.80;;;18.05;;
28577;SDS011;15769;52.248;15.818;2023-04-23T03:37:52;29.40;;;16.58;;
28577;SDS011;15769;52.248;15.818;2023-04-23T03:42:57;27.15;;;16.70;;
28577;SDS011;15769;52.248;15.818;2023-04-23T03:48:16;30.02;;;16.80;;
28577;SDS011;15769;52.248;15.818;2023-04-23T03:53:19;25.87;;;15.50;;
28577;SDS011;15769;52.248;15.818;2023-04-23T03:58:40;25.50;;;15.38;;
28577;SDS011;15769;52.248;15.818;2023-04-23T04:03:43;27.58;;;17.13;;
28577;SDS011;15769;52.248;15.818;2023-04-23T04:08:46;28.93;;;17.57;;
28577;SDS011;15769;52.248;15.818;2023-04-23T04:13:48;30.40;;;17.67;;
28577;SDS011;15769;52.248;15.818;2023-04-23T04:18:51;24.80;;;15.80;;
28577;SDS011;15769;52.248;15.818;2023-04-23T04:23:57;27.20;;;17.90;;
28577;SDS011;15769;52.248;15.818;2023-04-23T04:29:01;30.60;;;16.95;;
28577;SDS011;15769;52.248;15.818;2023-04-23T04:34:03;32.00;;;18.20;;
28577;SDS011;15769;52.248;15.818;2023-04-23T04:39:09;32.42;;;18.77;;
28577;SDS011;15769;52.248;15.818;2023-04-23T04:44:12;27.92;;;18.10;;
28577;SDS011;15769;52.248;15.818;2023-04-23T04:49:16;25.80;;;15.77;;
28577;SDS011;15769;52.248;15.818;2023-04-23T04:54:20;25.35;;;16.35;;
28577;SDS011;15769;52.248;15.818;2023-04-23T04:59:23;24.37;;;16.13;;
28577;SDS011;15769;52.248;15.818;2023-04-23T05:04:26;24.77;;;14.60;;
28577;SDS011;15769;52.248;15.818;2023-04-23T05:09:28;22.77;;;14.17;;
28577;SDS011;15769;52.248;15.818;2023-04-23T05:14:31;17.23;;;13.07;;
28577;SDS011;15769;52.248;15.818;2023-04-23T05:19:33;22.53;;;14.17;;
28577;SDS011;15769;52.248;15.818;2023-04-23T05:24:36;20.83;;;14.20;;
28577;SDS011;15769;52.248;15.818;2023-04-23T05:29:38;19.50;;;13.20;;
28577;SDS011;15769;52.248;15.818;2023-04-23T05:34:42;19.30;;;12.85;;
28577;SDS011;15769;52.248;15.818;2023-04-23T05:39:45;22.20;;;13.60;;
28577;SDS011;15769;52.248;15.818;2023-04-23T05:44:47;20.30;;;13.60;;
28577;SDS011;15769;52.248;15.818;2023-04-23T05:49:50;17.47;;;12.23;;
28577;SDS011;15769;52.248;15.818;2023-04-23T05:54:52;17.23;;;12.83;;
28577;SDS011;15769;52.248;15.818;2023-04-23T05:59:55;19.33;;;12.18;;
28577;SDS011;15769;52.248;15.818;2023-04-23T06:04:58;17.55;;;11.85;;
28577;SDS011;15769;52.248;15.818;2023-04-23T06:15:05;17.17;;;10.80;;
28577;SDS011;15769;52.248;15.818;2023-04-23T06:20:08;19.42;;;11.15;;
28577;SDS011;15769;52.248;15.818;2023-04-23T06:25:13;15.20;;;10.90;;
28577;SDS011;15769;52.248;15.818;2023-04-23T06:30:15;13.10;;;10.13;;
28577;SDS011;15769;52.248;15.818;2023-04-23T06:35:19;14.52;;;9.35;;
28577;SDS011;15769;52.248;15.818;2023-04-23T06:45:24;42.67;;;20.52;;
28577;SDS011;15769;52.248;15.818;2023-04-23T06:55:29;15.63;;;11.05;;
28577;SDS011;15769;52.248;15.818;2023-04-23T07:00:33;14.95;;;10.00;;
28577;SDS011;15769;52.248;15.818;2023-04-23T07:05:37;15.98;;;9.85;;
28577;SDS011;15769;52.248;15.818;2023-04-23T07:10:40;12.57;;;9.38;;
28577;SDS011;15769;52.248;15.818;2023-04-23T07:15:47;11.50;;;8.32;;
28577;SDS011;15769;52.248;15.818;2023-04-23T07:20:50;11.32;;;8.60;;
28577;SDS011;15769;52.248;15.818;2023-04-23T07:25:52;10.63;;;7.32;;
28577;SDS011;15769;52.248;15.818;2023-04-23T07:30:55;14.55;;;7.43;;
28577;SDS011;15769;52.248;15.818;2023-04-23T07:35:57;9.25;;;6.22;;
28577;SDS011;15769;52.248;15.818;2023-04-23T07:41:00;12.15;;;6.90;;
28577;SDS011;15769;52.248;15.818;2023-04-23T07:46:03;7.88;;;6.03;;
28577;SDS011;15769;52.248;15.818;2023-04-23T07:51:06;8.90;;;5.88;;
28577;SDS011;15769;52.248;15.818;2023-04-23T07:56:10;7.03;;;5.35;;
28577;SDS011;15769;52.248;15.818;2023-04-23T08:01:15;8.57;;;6.10;;
28577;SDS011;15769;52.248;15.818;2023-04-23T08:06:18;8.93;;;6.18;;
28577;SDS011;15769;52.248;15.818;2023-04-23T08:11:32;7.43;;;5.82;;
28577;SDS011;15769;52.248;15.818;2023-04-23T08:16:57;7.85;;;5.82;;
28577;SDS011;15769;52.248;15.818;2023-04-23T08:22:00;11.38;;;5.63;;
28577;SDS011;15769;52.248;15.818;2023-04-23T08:27:02;7.60;;;5.80;;
28577;SDS011;15769;52.248;15.818;2023-04-23T08:32:06;10.27;;;6.28;;
28577;SDS011;15769;52.248;15.818;2023-04-23T08:37:09;11.43;;;5.55;;
28577;SDS011;15769;52.248;15.818;2023-04-23T08:47:39;8.98;;;5.65;;
28577;SDS011;15769;52.248;15.818;2023-04-23T08:52:46;7.13;;;5.38;;
28577;SDS011;15769;52.248;15.818;2023-04-23T08:57:52;8.40;;;5.90;;
28577;SDS011;15769;52.248;15.818;2023-04-23T09:02:55;5.85;;;4.80;;
28577;SDS011;15769;52.248;15.818;2023-04-23T09:07:58;8.25;;;5.40;;
28577;SDS011;15769;52.248;15.818;2023-04-23T09:13:01;8.35;;;5.47;;
28577;SDS011;15769;52.248;15.818;2023-04-23T09:18:04;8.32;;;5.13;;
28577;SDS011;15769;52.248;15.818;2023-04-23T09:23:07;8.43;;;5.60;;
28577;SDS011;15769;52.248;15.818;2023-04-23T09:28:11;9.15;;;5.88;;
28577;SDS011;15769;52.248;15.818;2023-04-23T09:33:15;7.65;;;5.28;;
28577;SDS011;15769;52.248;15.818;2023-04-23T09:38:18;7.43;;;5.40;;
28577;SDS011;15769;52.248;15.818;2023-04-23T09:43:22;7.50;;;5.15;;
28577;SDS011;15769;52.248;15.818;2023-04-23T09:48:24;8.32;;;5.63;;
28577;SDS011;15769;52.248;15.818;2023-04-23T09:53:41;15.43;;;13.30;;
28577;SDS011;15769;52.248;15.818;2023-04-23T09:58:44;54.92;;;47.50;;
28577;SDS011;15769;52.248;15.818;2023-04-23T10:03:47;14.90;;;11.50;;
28577;SDS011;15769;52.248;15.818;2023-04-23T10:08:55;10.63;;;8.05;;
28577;SDS011;15769;52.248;15.818;2023-04-23T10:13:57;7.53;;;4.45;;
28577;SDS011;15769;52.248;15.818;2023-04-23T10:19:00;4.70;;;4.20;;
28577;SDS011;15769;52.248;15.818;2023-04-23T10:24:05;5.55;;;4.38;;
28577;SDS011;15769;52.248;15.818;2023-04-23T10:29:11;19.40;;;13.55;;
28577;SDS011;15769;52.248;15.818;2023-04-23T10:34:19;12.30;;;9.55;;
28577;SDS011;15769;52.248;15.818;2023-04-23T10:39:22;24.33;;;15.27;;
28577;SDS011;15769;52.248;15.818;2023-04-23T10:44:32;16.90;;;12.20;;
28577;SDS011;15769;52.248;15.818;2023-04-23T10:49:55;14.13;;;10.63;;
28577;SDS011;15769;52.248;15.818;2023-04-23T11:00:03;6.60;;;4.55;;
28577;SDS011;15769;52.248;15.818;2023-04-23T11:05:07;39.42;;;18.27;;
28577;SDS011;15769;52.248;15.818;2023-04-23T11:10:11;42.95;;;22.85;;
28577;SDS011;15769;52.248;15.818;2023-04-23T11:15:14;21.35;;;14.00;;
28577;SDS011;15769;52.248;15.818;2023-04-23T11:20:19;23.52;;;13.95;;
28577;SDS011;15769;52.248;15.818;2023-04-23T11:25:24;16.30;;;9.15;;
28577;SDS011;15769;52.248;15.818;2023-04-23T11:30:34;7.25;;;5.97;;
28577;SDS011;15769;52.248;15.818;2023-04-23T11:40:44;6.10;;;4.72;;
28577;SDS011;15769;52.248;15.818;2023-04-23T11:45:48;5.53;;;4.55;;
28577;SDS011;15769;52.248;15.818;2023-04-23T11:50:50;5.85;;;4.38;;
28577;SDS011;15769;52.248;15.818;2023-04-23T11:55:53;7.15;;;5.05;;
28577;SDS011;15769;52.248;15.818;2023-04-23T12:06:00;4.82;;;3.90;;
28577;SDS011;15769;52.248;15.818;2023-04-23T12:11:03;8.95;;;6.93;;
28577;SDS011;15769;52.248;15.818;2023-04-23T12:16:07;5.40;;;3.60;;
28577;SDS011;15769;52.248;15.818;2023-04-23T12:21:12;6.43;;;3.45;;
28577;SDS011;15769;52.248;15.818;2023-04-23T12:26:15;4.38;;;3.30;;
28577;SDS011;15769;52.248;15.818;2023-04-23T12:31:24;3.80;;;3.40;;
28577;SDS011;15769;52.248;15.818;2023-04-23T12:36:27;5.40;;;3.08;;
28577;SDS011;15769;52.248;15.818;2023-04-23T12:41:34;4.38;;;3.20;;
28577;SDS011;15769;52.248;15.818;2023-04-23T12:46:38;3.47;;;3.17;;
28577;SDS011;15769;52.248;15.818;2023-04-23T12:51:41;4.13;;;3.50;;
28577;SDS011;15769;52.248;15.818;2023-04-23T12:56:46;4.63;;;3.42;;
28577;SDS011;15769;52.248;15.818;2023-04-23T13:01:50;5.07;;;3.40;;
28577;SDS011;15769;52.248;15.818;2023-04-23T13:06:52;4.38;;;3.65;;
28577;SDS011;15769;52.248;15.818;2023-04-23T13:11:56;7.50;;;5.35;;
28577;SDS011;15769;52.248;15.818;2023-04-23T13:17:01;14.73;;;7.10;;
28577;SDS011;15769;52.248;15.818;2023-04-23T13:22:07;14.95;;;8.68;;
28577;SDS011;15769;52.248;15.818;2023-04-23T13:27:10;18.48;;;9.68;;
28577;SDS011;15769;52.248;15.818;2023-04-23T13:32:13;9.30;;;6.65;;
28577;SDS011;15769;52.248;15.818;2023-04-23T13:37:18;4.80;;;3.85;;
28577;SDS011;15769;52.248;15.818;2023-04-23T13:42:20;56.47;;;40.92;;
28577;SDS011;15769;52.248;15.818;2023-04-23T13:47:23;12.05;;;8.90;;
28577;SDS011;15769;52.248;15.818;2023-04-23T13:52:25;7.00;;;4.90;;
28577;SDS011;15769;52.248;15.818;2023-04-23T13:57:28;5.93;;;4.15;;
28577;SDS011;15769;52.248;15.818;2023-04-23T14:02:30;3.42;;;2.30;;
28577;SDS011;15769;52.248;15.818;2023-04-23T14:12:36;3.75;;;2.95;;
28577;SDS011;15769;52.248;15.818;2023-04-23T14:17:42;5.40;;;3.97;;
28577;SDS011;15769;52.248;15.818;2023-04-23T14:22:49;3.20;;;2.90;;
28577;SDS011;15769;52.248;15.818;2023-04-23T14:27:56;50.92;;;42.67;;
28577;SDS011;15769;52.248;15.818;2023-04-23T14:32:59;11.48;;;8.93;;
28577;SDS011;15769;52.248;15.818;2023-04-23T14:38:02;43.50;;;34.25;;
28577;SDS011;15769;52.248;15.818;2023-04-23T14:43:04;6.97;;;5.40;;
28577;SDS011;15769;52.248;15.818;2023-04-23T14:48:17;43.65;;;33.97;;
28577;SDS011;15769;52.248;15.818;2023-04-23T14:53:20;6.68;;;5.72;;
28577;SDS011;15769;52.248;15.818;2023-04-23T14:58:24;4.28;;;3.70;;
28577;SDS011;15769;52.248;15.818;2023-04-23T15:03:35;10.30;;;8.10;;
28577;SDS011;15769;52.248;15.818;2023-04-23T15:08:39;6.80;;;4.90;;
28577;SDS011;15769;52.248;15.818;2023-04-23T15:13:55;3.08;;;2.60;;
28577;SDS011;15769;52.248;15.818;2023-04-23T15:19:05;4.03;;;2.83;;
28577;SDS011;15769;52.248;15.818;2023-04-23T15:29:12;9.32;;;6.82;;
28577;SDS011;15769;52.248;15.818;2023-04-23T15:34:15;13.48;;;6.30;;
28577;SDS011;15769;52.248;15.818;2023-04-23T15:39:17;7.10;;;4.30;;
28577;SDS011;15769;52.248;15.818;2023-04-23T15:44:21;11.63;;;5.20;;
28577;SDS011;15769;52.248;15.818;2023-04-23T15:49:25;5.03;;;3.80;;
28577;SDS011;15769;52.248;15.818;2023-04-23T15:54:27;11.68;;;7.90;;
28577;SDS011;15769;52.248;15.818;2023-04-23T15:59:30;5.57;;;4.45;;
28577;SDS011;15769;52.248;15.818;2023-04-23T16:04:33;3.90;;;3.20;;
28577;SDS011;15769;52.248;15.818;2023-04-23T16:09:38;3.17;;;2.88;;
28577;SDS011;15769;52.248;15.818;2023-04-23T16:14:41;4.63;;;3.50;;
28577;SDS011;15769;52.248;15.818;2023-04-23T16:29:50;7.50;;;5.20;;
28577;SDS011;15769;52.248;15.818;2023-04-23T16:34:52;4.45;;;3.97;;
28577;SDS011;15769;52.248;15.818;2023-04-23T16:39:56;5.30;;;4.20;;
28577;SDS011;15769;52.248;15.818;2023-04-23T16:44:59;4.80;;;4.28;;
28577;SDS011;15769;52.248;15.818;2023-04-23T16:50:01;4.18;;;3.30;;
28577;SDS011;15769;52.248;15.818;2023-04-23T16:55:05;5.40;;;4.07;;
28577;SDS011;15769;52.248;15.818;2023-04-23T17:00:08;5.00;;;3.95;;
28577;SDS011;15769;52.248;15.818;2023-04-23T17:05:16;2.92;;;2.63;;
28577;SDS011;15769;52.248;15.818;2023-04-23T17:10:20;2.72;;;2.20;;
28577;SDS011;15769;52.248;15.818;2023-04-23T17:15:23;3.83;;;2.40;;
28577;SDS011;15769;52.248;15.818;2023-04-23T17:20:25;2.80;;;2.30;;
28577;SDS011;15769;52.248;15.818;2023-04-23T17:25:28;2.85;;;2.22;;
28577;SDS011;15769;52.248;15.818;2023-04-23T17:30:30;2.75;;;2.05;;
28577;SDS011;15769;52.248;15.818;2023-04-23T17:35:34;2.08;;;1.88;;
28577;SDS011;15769;52.248;15.818;2023-04-23T17:40:37;2.20;;;2.00;;
28577;SDS011;15769;52.248;15.818;2023-04-23T17:45:40;2.00;;;1.90;;
28577;SDS011;15769;52.248;15.818;2023-04-23T17:50:43;2.47;;;2.28;;
28577;SDS011;15769;52.248;15.818;2023-04-23T17:55:45;3.35;;;2.40;;
28577;SDS011;15769;52.248;15.818;2023-04-23T18:00:49;2.50;;;2.30;;
28577;SDS011;15769;52.248;15.818;2023-04-23T18:05:51;2.30;;;2.10;;
28577;SDS011;15769;52.248;15.818;2023-04-23T18:10:57;5.07;;;3.17;;
28577;SDS011;15769;52.248;15.818;2023-04-23T18:16:01;8.70;;;5.10;;
28577;SDS011;15769;52.248;15.818;2023-04-23T18:21:04;22.70;;;11.45;;
28577;SDS011;15769;52.248;15.818;2023-04-23T18:26:07;30.38;;;13.50;;
28577;SDS011;15769;52.248;15.818;2023-04-23T18:31:10;22.17;;;8.50;;
28577;SDS011;15769;52.248;15.818;2023-04-23T18:41:25;18.25;;;6.57;;
28577;SDS011;15769;52.248;15.818;2023-04-23T18:46:31;9.80;;;4.90;;
28577;SDS011;15769;52.248;15.818;2023-04-23T18:51:37;7.63;;;4.65;;
28577;SDS011;15769;52.248;15.818;2023-04-23T18:56:44;9.05;;;5.70;;
28577;SDS011;15769;52.248;15.818;2023-04-23T19:01:47;34.08;;;16.85;;
28577;SDS011;15769;52.248;15.818;2023-04-23T19:06:51;58.20;;;28.88;;
28577;SDS011;15769;52.248;15.818;2023-04-23T19:11:53;68.47;;;32.90;;
28577;SDS011;15769;52.248;15.818;2023-04-23T19:16:56;77.77;;;38.03;;
28577;SDS011;15769;52.248;15.818;2023-04-23T19:21:58;55.73;;;30.87;;
28577;SDS011;15769;52.248;15.818;2023-04-23T19:27:04;21.63;;;12.98;;
28577;SDS011;15769;52.248;15.818;2023-04-23T19:32:08;10.60;;;7.10;;
28577;SDS011;15769;52.248;15.818;2023-04-23T19:37:10;7.68;;;5.18;;
28577;SDS011;15769;52.248;15.818;2023-04-23T19:42:13;5.30;;;3.88;;
28577;SDS011;15769;52.248;15.818;2023-04-23T19:47:16;6.25;;;4.00;;
28577;SDS011;15769;52.248;15.818;2023-04-23T19:52:19;4.90;;;3.87;;
28577;SDS011;15769;52.248;15.818;2023-04-23T19:57:23;6.50;;;3.65;;
28577;SDS011;15769;52.248;15.818;2023-04-23T20:02:26;5.05;;;3.63;;
28577;SDS011;15769;52.248;15.818;2023-04-23T20:07:29;6.97;;;4.50;;
28577;SDS011;15769;52.248;15.818;2023-04-23T20:12:32;18.25;;;10.13;;
28577;SDS011;15769;52.248;15.818;2023-04-23T20:17:38;11.02;;;7.22;;
28577;SDS011;15769;52.248;15.818;2023-04-23T20:22:45;16.33;;;8.25;;
28577;SDS011;15769;52.248;15.818;2023-04-23T20:27:48;15.68;;;9.70;;
28577;SDS011;15769;52.248;15.818;2023-04-23T20:32:51;17.58;;;9.43;;
28577;SDS011;15769;52.248;15.818;2023-04-23T20:37:54;14.70;;;9.80;;
28577;SDS011;15769;52.248;15.818;2023-04-23T20:42:56;15.37;;;10.53;;
28577;SDS011;15769;52.248;15.818;2023-04-23T20:47:59;21.42;;;13.13;;
28577;SDS011;15769;52.248;15.818;2023-04-23T20:53:04;20.75;;;13.02;;
28577;SDS011;15769;52.248;15.818;2023-04-23T20:58:06;16.80;;;11.55;;
28577;SDS011;15769;52.248;15.818;2023-04-23T21:03:09;12.75;;;9.65;;
28577;SDS011;15769;52.248;15.818;2023-04-23T21:08:13;12.98;;;9.07;;
28577;SDS011;15769;52.248;15.818;2023-04-23T21:13:16;13.30;;;9.80;;
28577;SDS011;15769;52.248;15.818;2023-04-23T21:18:19;13.73;;;9.80;;
28577;SDS011;15769;52.248;15.818;2023-04-23T21:23:22;14.80;;;10.32;;
28577;SDS011;15769;52.248;15.818;2023-04-23T21:28:24;14.20;;;9.53;;
28577;SDS011;15769;52.248;15.818;2023-04-23T21:33:27;11.60;;;8.13;;
28577;SDS011;15769;52.248;15.818;2023-04-23T21:38:29;11.43;;;8.07;;
28577;SDS011;15769;52.248;15.818;2023-04-23T21:43:32;14.13;;;8.13;;
28577;SDS011;15769;52.248;15.818;2023-04-23T21:48:36;12.38;;;7.55;;
28577;SDS011;15769;52.248;15.818;2023-04-23T21:53:39;9.13;;;6.90;;
28577;SDS011;15769;52.248;15.818;2023-04-23T21:58:42;10.60;;;8.05;;
28577;SDS011;15769;52.248;15.818;2023-04-23T22:03:45;10.25;;;7.55;;
28577;SDS011;15769;52.248;15.818;2023-04-23T22:08:48;11.82;;;7.07;;
28577;SDS011;15769;52.248;15.818;2023-04-23T22:13:52;12.00;;;8.00;;
28577;SDS011;15769;52.248;15.818;2023-04-23T22:18:56;12.65;;;8.63;;
28577;SDS011;15769;52.248;15.818;2023-04-23T22:23:58;12.77;;;8.63;;
28577;SDS011;15769;52.248;15.818;2023-04-23T22:29:01;17.73;;;9.13;;
28577;SDS011;15769;52.248;15.818;2023-04-23T22:34:04;14.53;;;8.97;;
28577;SDS011;15769;52.248;15.818;2023-04-23T22:39:06;13.98;;;9.98;;
28577;SDS011;15769;52.248;15.818;2023-04-23T22:44:11;13.93;;;9.63;;
28577;SDS011;15769;52.248;15.818;2023-04-23T22:49:14;14.30;;;9.90;;
28577;SDS011;15769;52.248;15.818;2023-04-23T22:54:19;11.85;;;9.60;;
28577;SDS011;15769;52.248;15.818;2023-04-23T22:59:21;14.60;;;10.13;;
28577;SDS011;15769;52.248;15.818;2023-04-23T23:04:24;17.30;;;10.60;;
28577;SDS011;15769;52.248;15.818;2023-04-23T23:09:27;17.08;;;11.70;;
28577;SDS011;15769;52.248;15.818;2023-04-23T23:14:31;16.30;;;10.80;;
28577;SDS011;15769;52.248;15.818;2023-04-23T23:19:34;16.10;;;11.38;;
28577;SDS011;15769;52.248;15.818;2023-04-23T23:24:38;16.95;;;11.73;;
28577;SDS011;15769;52.248;15.818;2023-04-23T23:29:46;18.13;;;12.00;;
28577;SDS011;15769;52.248;15.818;2023-04-23T23:34:49;16.02;;;11.82;;
28577;SDS011;15769;52.248;15.818;2023-04-23T23:39:55;21.80;;;13.52;;
28577;SDS011;15769;52.248;15.818;2023-04-23T23:44:57;18.33;;;12.73;;
28577;SDS011;15769;52.248;15.818;2023-04-23T23:50:00;18.93;;;14.27;;
28577;SDS011;15769;52.248;15.818;2023-04-23T23:55:03;16.73;;;11.87;;
